Time,TemperatureF,DewpointF,PressureIn,WindDirection,WindDirectionDegrees,WindSpeedMPH,WindSpeedGustMPH,Humidity,HourlyPrecipIn,Conditions,Clouds,dailyrainin,SoftwareType,DateUTC
2013-02-17 00:00:00,35.2,19.4,30.09,SSE,158,0.0,0.0,52,0.00,,---,0.00,VWS V14.01,2013-02-17 06:00:00,
2013-02-17 00:05:00,35.2,19.4,30.09,South,180,0.9,1.1,52,0.00,,---,0.00,VWS V14.01,2013-02-17 06:05:00,
2013-02-17 00:10:00,35.2,19.4,30.09,WSW,248,0.0,0.0,52,0.00,,---,0.00,VWS V14.01,2013-02-17 06:10:00,
2013-02-17 00:15:00,35.2,19.4,30.09,ESE,112,0.0,0.0,52,0.00,,---,0.00,VWS V14.01,2013-02-17 06:15:00,
2013-02-17 00:20:00,35.1,19.2,30.09,SE,135,0.0,0.0,52,0.00,,---,0.00,VWS V14.01,2013-02-17 06:20:00,
2013-02-17 00:25:00,35.1,19.2,30.09,South,180,0.0,0.0,52,0.00,,---,0.00,VWS V14.01,2013-02-17 06:25:00,
2013-02-17 08:58:00,34.0,21.2,30.00,East,90,2.5,2.5,59,0.00,,---,0.00,VWS V14.01,2013-02-17 14:58:00,
2013-02-17 09:03:00,34.5,21.3,30.00,SSE,158,1.1,1.1,58,0.00,,---,0.00,VWS V14.01,2013-02-17 15:03:00,
2013-02-17 09:08:00,35.1,21.8,30.00,SE,135,1.1,1.1,58,0.00,,---,0.00,VWS V14.01,2013-02-17 15:08:00,
2013-02-17 09:13:00,35.6,21.9,30.00,ESE,112,0.0,0.0,57,0.00,,---,0.00,VWS V14.01,2013-02-17 15:13:00,
2013-02-17 09:18:00,36.1,22.4,30.00,South,180,0.0,1.1,57,0.00,,---,0.00,VWS V14.01,2013-02-17 15:18:00,
2013-02-17 09:23:00,37.0,23.2,30.00,SSE,158,0.0,0.0,57,0.00,,---,0.00,VWS V14.01,2013-02-17 15:23:00,
2013-02-17 09:28:00,37.9,24.1,30.00,SSE,158,0.0,0.0,57,0.00,,---,0.00,VWS V14.01,2013-02-17 15:28:00,
2013-02-17 09:33:00,39.0,24.7,30.00,South,180,1.1,1.1,56,0.00,,---,0.00,VWS V14.01,2013-02-17 15:33:00,
2013-02-17 09:38:00,39.7,24.9,30.00,South,180,1.1,1.3,55,0.00,,---,0.00,VWS V14.01,2013-02-17 15:38:00,
2013-02-17 09:43:00,40.3,25.4,30.00,SE,135,0.0,0.0,55,0.00,,---,0.00,VWS V14.01,2013-02-17 15:43:00,
2013-02-17 09:48:00,41.0,25.6,30.00,SE,135,0.9,0.9,54,0.00,,---,0.00,VWS V14.01,2013-02-17 15:48:00,
2013-02-17 09:53:00,42.1,26.6,30.00,WSW,248,0.0,1.1,54,0.00,,---,0.00,VWS V14.01,2013-02-17 15:53:00,
2013-02-17 09:58:00,42.3,25.9,30.00,SE,135,0.0,0.0,52,0.00,,---,0.00,VWS V14.01,2013-02-17 15:58:00,
2013-02-17 10:03:00,42.8,25.9,29.97,SE,135,1.1,1.6,51,0.00,,---,0.00,VWS V14.01,2013-02-17 16:03:00,
2013-02-17 10:08:00,43.2,26.3,29.97,SE,135,0.0,0.0,51,0.00,,---,0.00,VWS V14.01,2013-02-17 16:08:00,
2013-02-17 10:13:00,43.5,26.6,29.97,SE,135,0.0,0.0,51,0.00,,---,0.00,VWS V14.01,2013-02-17 16:13:00,
2013-02-17 10:18:00,44.2,27.3,29.97,SE,135,0.0,0.0,51,0.00,,---,0.00,VWS V14.01,2013-02-17 16:18:00,
2013-02-17 10:23:00,45.1,28.6,29.97,SSE,158,0.0,0.0,52,0.00,,---,0.00,VWS V14.01,2013-02-17 16:23:00,
2013-02-17 10:28:00,45.9,28.8,29.97,SE,135,0.9,0.9,51,0.00,,---,0.00,VWS V14.01,2013-02-17 16:28:00,
2013-02-17 10:33:00,46.8,29.6,29.97,SE,135,1.1,1.1,51,0.00,,---,0.00,VWS V14.01,2013-02-17 16:33:00,
2013-02-17 10:38:00,46.8,29.1,29.97,South,180,0.0,0.0,50,0.00,,---,0.00,VWS V14.01,2013-02-17 16:38:00,
2013-02-17 10:43:00,47.3,29.6,29.97,South,180,0.0,0.0,50,0.00,,---,0.00,VWS V14.01,2013-02-17 16:43:00,
2013-02-17 10:48:00,47.7,30.0,29.97,ENE,68,1.3,1.3,50,0.00,,---,0.00,VWS V14.01,2013-02-17 16:48:00,
2013-02-17 10:53:00,48.2,30.0,29.97,SSE,158,0.0,0.0,49,0.00,,---,0.00,VWS V14.01,2013-02-17 16:53:00,
2013-02-17 10:58:00,48.7,30.5,29.97,East,90,1.1,1.1,49,0.00,,---,0.00,VWS V14.01,2013-02-17 16:58:00,
2013-02-17 11:03:00,49.5,31.1,29.97,ESE,112,0.0,1.6,49,0.00,,---,0.00,VWS V14.01,2013-02-17 17:03:00,
2013-02-17 11:08:00,50.0,31.6,29.97,SE,135,0.0,0.0,49,0.00,,---,0.00,VWS V14.01,2013-02-17 17:08:00,
2013-02-17 11:13:00,50.7,31.8,29.97,SW,225,1.6,1.6,48,0.00,,---,0.00,VWS V14.01,2013-02-17 17:13:00,
2013-02-17 11:18:00,51.6,32.6,29.94,South,180,1.3,1.3,48,0.00,,---,0.00,VWS V14.01,2013-02-17 17:18:00,
2013-02-17 11:23:00,51.6,32.6,29.94,South,180,0.0,0.0,48,0.00,,---,0.00,VWS V14.01,2013-02-17 17:23:00,
2013-02-17 11:28:00,51.6,32.6,29.94,South,180,0.0,1.1,48,0.00,,---,0.00,VWS V14.01,2013-02-17 17:28:00,
2013-02-17 11:33:00,53.2,33.5,29.94,SE,135,0.0,0.0,47,0.00,,---,0.00,VWS V14.01,2013-02-17 17:33:00,
2013-02-17 11:38:00,53.2,33.5,29.94,South,180,1.1,1.1,47,0.00,,---,0.00,VWS V14.01,2013-02-17 17:38:00,
2013-02-17 11:43:00,53.6,33.9,29.94,SSE,158,0.9,2.9,47,0.00,,---,0.00,VWS V14.01,2013-02-17 17:43:00,
2013-02-17 11:48:00,53.8,33.5,29.94,WSW,248,0.0,0.0,46,0.00,,---,0.00,VWS V14.01,2013-02-17 17:48:00,
2013-02-17 11:53:00,54.0,33.7,29.94,SSE,158,0.0,0.0,46,0.00,,---,0.00,VWS V14.01,2013-02-17 17:53:00,
2013-02-17 11:58:00,54.7,34.3,29.94,East,90,2.5,2.5,46,0.00,,---,0.00,VWS V14.01,2013-02-17 17:58:00,
2013-02-17 12:03:00,54.9,34.5,29.94,SE,135,0.0,0.9,46,0.00,,---,0.00,VWS V14.01,2013-02-17 18:03:00,
2013-02-17 12:08:00,55.6,35.2,29.94,ENE,68,1.1,1.1,46,0.00,,---,0.00,VWS V14.01,2013-02-17 18:08:00,
2013-02-17 12:13:00,56.5,36.0,29.94,South,180,0.0,0.9,46,0.00,,---,0.00,VWS V14.01,2013-02-17 18:13:00,
2013-02-17 12:18:00,57.4,36.8,29.91,SW,225,2.0,2.0,46,0.00,,---,0.00,VWS V14.01,2013-02-17 18:18:00,
2013-02-17 12:23:00,57.7,36.6,29.91,South,180,3.4,3.4,45,0.00,,---,0.00,VWS V14.01,2013-02-17 18:23:00,
2013-02-17 12:28:00,57.9,36.7,29.91,South,180,0.9,0.9,45,0.00,,---,0.00,VWS V14.01,2013-02-17 18:28:00,
2013-02-17 12:33:00,59.2,37.3,29.91,ESE,112,0.9,4.3,44,0.00,,---,0.00,VWS V14.01,2013-02-17 18:33:00,
2013-02-17 12:38:00,59.4,37.5,29.91,SE,135,0.0,0.0,44,0.00,,---,0.00,VWS V14.01,2013-02-17 18:38:00,
2013-02-17 12:43:00,60.1,38.1,29.91,South,180,0.0,0.0,44,0.00,,---,0.00,VWS V14.01,2013-02-17 18:43:00,
2013-02-17 12:47:00,60.3,37.7,29.91,East,90,2.7,2.7,43,0.00,,---,0.00,VWS V14.01,2013-02-17 18:47:00,
2013-02-17 12:52:00,59.7,36.6,29.91,SE,135,0.9,1.6,42,0.00,,---,0.00,VWS V14.01,2013-02-17 18:52:00,
2013-02-17 12:57:00,60.3,37.1,29.91,SE,135,2.9,2.9,42,0.00,,---,0.00,VWS V14.01,2013-02-17 18:57:00,
2013-02-17 13:02:00,60.8,37.6,29.88,South,180,0.0,2.2,42,0.00,,---,0.00,VWS V14.01,2013-02-17 19:02:00,
2013-02-17 13:07:00,61.2,37.9,29.88,East,90,2.5,2.5,42,0.00,,---,0.00,VWS V14.01,2013-02-17 19:07:00,
2013-02-17 13:12:00,61.5,37.6,29.88,ESE,112,3.1,3.1,41,0.00,,---,0.00,VWS V14.01,2013-02-17 19:12:00,
2013-02-17 13:17:00,61.3,36.8,29.88,SE,135,0.9,3.8,40,0.00,,---,0.00,VWS V14.01,2013-02-17 19:17:00,
2013-02-17 13:22:00,61.5,37.0,29.88,ESE,112,7.4,7.4,40,0.00,,---,0.00,VWS V14.01,2013-02-17 19:22:00,
2013-02-17 13:27:00,61.7,37.2,29.88,South,180,0.0,2.2,40,0.00,,---,0.00,VWS V14.01,2013-02-17 19:27:00,
2013-02-17 13:32:00,62.1,37.5,29.88,South,180,0.0,1.1,40,0.00,,---,0.00,VWS V14.01,2013-02-17 19:32:00,
2013-02-17 13:37:00,63.0,38.3,29.88,SW,225,0.0,2.9,40,0.00,,---,0.00,VWS V14.01,2013-02-17 19:37:00,
2013-02-17 13:42:00,63.0,37.6,29.88,SSE,158,1.6,2.5,39,0.00,,---,0.00,VWS V14.01,2013-02-17 19:42:00,
2013-02-17 13:47:00,63.1,37.8,29.85,SE,135,0.9,2.5,39,0.00,,---,0.00,VWS V14.01,2013-02-17 19:47:00,
2013-02-17 13:52:00,63.3,38.0,29.85,South,180,0.0,1.3,39,0.00,,---,0.00,VWS V14.01,2013-02-17 19:52:00,
2013-02-17 13:57:00,63.1,37.8,29.85,SE,135,2.2,2.2,39,0.00,,---,0.00,VWS V14.01,2013-02-17 19:57:00,
2013-02-17 14:02:00,62.8,36.8,29.85,SE,135,2.9,2.9,38,0.00,,---,0.00,VWS V14.01,2013-02-17 20:02:00,
2013-02-17 14:07:00,63.0,37.0,29.85,SE,135,2.5,2.9,38,0.00,,---,0.00,VWS V14.01,2013-02-17 20:07:00,
2013-02-17 14:12:00,63.3,37.3,29.85,South,180,2.9,3.8,38,0.00,,---,0.00,VWS V14.01,2013-02-17 20:12:00,
2013-02-17 14:17:00,63.1,37.1,29.85,East,90,0.0,2.2,38,0.00,,---,0.00,VWS V14.01,2013-02-17 20:17:00,
2013-02-17 14:22:00,63.1,37.1,29.85,South,180,0.0,3.6,38,0.00,,---,0.00,VWS V14.01,2013-02-17 20:22:00,
2013-02-17 14:27:00,63.5,36.8,29.85,East,90,2.5,2.5,37,0.00,,---,0.00,VWS V14.01,2013-02-17 20:27:00,
2013-02-17 14:32:00,63.9,37.8,29.82,ESE,112,1.1,1.1,38,0.00,,---,0.00,VWS V14.01,2013-02-17 20:32:00,
2013-02-17 14:37:00,64.0,37.3,29.82,SE,135,1.6,2.9,37,0.00,,---,0.00,VWS V14.01,2013-02-17 20:37:00,
2013-02-17 14:42:00,63.9,37.1,29.82,South,180,1.1,2.2,37,0.00,,---,0.00,VWS V14.01,2013-02-17 20:42:00,
2013-02-17 14:47:00,63.7,37.6,29.82,SE,135,1.3,1.3,38,0.00,,---,0.00,VWS V14.01,2013-02-17 20:47:00,
2013-02-17 14:52:00,63.5,36.8,29.82,South,180,0.0,1.6,37,0.00,,---,0.00,VWS V14.01,2013-02-17 20:52:00,
2013-02-17 14:57:00,63.5,36.8,29.82,South,180,0.0,0.0,37,0.00,,---,0.00,VWS V14.01,2013-02-17 20:57:00,
2013-02-17 15:03:00,63.7,37.6,29.82,South,180,0.0,1.1,38,0.00,,---,0.00,VWS V14.01,2013-02-17 21:03:00,
2013-02-17 15:08:00,63.9,37.1,29.82,East,90,0.0,0.0,37,0.00,,---,0.00,VWS V14.01,2013-02-17 21:08:00,
2013-02-17 15:13:00,64.2,37.4,29.82,SSE,158,1.3,1.6,37,0.00,,---,0.00,VWS V14.01,2013-02-17 21:13:00,
2013-02-17 15:18:00,64.4,37.6,29.82,SSE,158,0.0,0.0,37,0.00,,---,0.00,VWS V14.01,2013-02-17 21:18:00,
2013-02-17 15:23:00,64.4,36.9,29.82,South,180,0.0,0.0,36,0.00,,---,0.00,VWS V14.01,2013-02-17 21:23:00,
2013-02-17 15:28:00,63.9,37.1,29.82,SE,135,0.0,0.0,37,0.00,,---,0.00,VWS V14.01,2013-02-17 21:28:00,
2013-02-17 15:33:00,63.1,36.5,29.82,ESE,112,1.1,5.6,37,0.00,,---,0.00,VWS V14.01,2013-02-17 21:33:00,
2013-02-17 15:38:00,62.8,36.2,29.82,SE,135,0.0,0.0,37,0.00,,---,0.00,VWS V14.01,2013-02-17 21:38:00,
2013-02-17 15:43:00,62.2,35.7,29.82,SE,135,2.5,2.5,37,0.00,,---,0.00,VWS V14.01,2013-02-17 21:43:00,
2013-02-17 15:48:00,62.1,35.5,29.79,South,180,2.5,2.5,37,0.00,,---,0.00,VWS V14.01,2013-02-17 21:48:00,
2013-02-17 15:53:00,61.5,35.0,29.79,South,180,1.6,2.5,37,0.00,,---,0.00,VWS V14.01,2013-02-17 21:53:00,
2013-02-17 15:57:00,61.2,34.7,29.79,ESE,112,0.0,0.0,37,0.00,,---,0.00,VWS V14.01,2013-02-17 21:57:00,
2013-02-17 16:02:00,61.0,35.2,29.79,East,90,2.2,2.2,38,0.00,,---,0.00,VWS V14.01,2013-02-17 22:02:00,
2013-02-17 16:08:00,60.8,35.1,29.79,East,90,2.0,3.6,38,0.00,,---,0.00,VWS V14.01,2013-02-17 22:08:00,
2013-02-17 16:13:00,60.6,34.9,29.79,SSE,158,0.9,0.9,38,0.00,,---,0.00,VWS V14.01,2013-02-17 22:13:00,
2013-02-17 16:17:00,60.3,34.6,29.79,South,180,0.0,2.0,38,0.00,,---,0.00,VWS V14.01,2013-02-17 22:17:00,
2013-02-17 16:22:00,60.1,34.4,29.79,SE,135,0.0,2.5,38,0.00,,---,0.00,VWS V14.01,2013-02-17 22:22:00,
2013-02-17 16:27:00,60.1,34.4,29.79,ENE,68,0.0,0.0,38,0.00,,---,0.00,VWS V14.01,2013-02-17 22:27:00,
2013-02-17 16:32:00,59.9,34.9,29.79,SSE,158,0.0,0.9,39,0.00,,---,0.00,VWS V14.01,2013-02-17 22:32:00,
2013-02-17 16:37:00,59.7,34.1,29.79,SSE,158,0.9,2.0,38,0.00,,---,0.00,VWS V14.01,2013-02-17 22:37:00,
2013-02-17 16:42:00,59.4,33.8,29.79,South,180,2.2,2.2,38,0.00,,---,0.00,VWS V14.01,2013-02-17 22:42:00,
2013-02-17 16:47:00,59.0,33.5,29.76,NE,45,0.9,3.1,38,0.00,,---,0.00,VWS V14.01,2013-02-17 22:47:00,
2013-02-17 16:52:00,58.8,33.9,29.76,SE,135,0.0,2.9,39,0.00,,---,0.00,VWS V14.01,2013-02-17 22:52:00,
2013-02-17 16:57:00,58.6,33.8,29.76,SSE,158,0.0,0.0,39,0.00,,---,0.00,VWS V14.01,2013-02-17 22:57:00,
2013-02-17 17:02:00,58.5,33.6,29.76,NE,45,0.0,3.8,39,0.00,,---,0.00,VWS V14.01,2013-02-17 23:02:00,
2013-02-17 17:07:00,58.1,33.3,29.76,East,90,0.0,1.6,39,0.00,,---,0.00,VWS V14.01,2013-02-17 23:07:00,
2013-02-17 17:12:00,57.9,33.1,29.76,South,180,0.0,0.0,39,0.00,,---,0.00,VWS V14.01,2013-02-17 23:12:00,
2013-02-17 17:17:00,57.4,32.7,29.76,East,90,1.1,3.1,39,0.00,,---,0.00,VWS V14.01,2013-02-17 23:17:00,
2013-02-17 17:22:00,57.2,32.5,29.76,ESE,112,0.0,0.0,39,0.00,,---,0.00,VWS V14.01,2013-02-17 23:22:00,
2013-02-17 17:27:00,56.8,32.8,29.76,East,90,0.0,0.0,40,0.00,,---,0.00,VWS V14.01,2013-02-17 23:27:00,
2013-02-17 17:32:00,56.5,32.5,29.76,South,180,0.0,1.6,40,0.00,,---,0.00,VWS V14.01,2013-02-17 23:32:00,
2013-02-17 17:37:00,56.1,32.2,29.76,South,180,1.3,2.5,40,0.00,,---,0.00,VWS V14.01,2013-02-17 23:37:00,
2013-02-17 17:42:00,55.9,32.0,29.76,SE,135,0.9,1.6,40,0.00,,---,0.00,VWS V14.01,2013-02-17 23:42:00,
2013-02-17 17:47:00,55.4,31.5,29.76,South,180,0.0,1.3,40,0.00,,---,0.00,VWS V14.01,2013-02-17 23:47:00,
2013-02-17 17:52:00,54.9,31.6,29.76,South,180,0.0,0.0,41,0.00,,---,0.00,VWS V14.01,2013-02-17 23:52:00,
2013-02-17 17:57:00,54.1,31.0,29.76,South,180,0.0,0.0,41,0.00,,---,0.00,VWS V14.01,2013-02-17 23:57:00,
2013-02-17 18:02:00,53.4,30.9,29.76,South,180,0.0,0.0,42,0.00,,---,0.00,VWS V14.01,2013-02-18 00:02:00,
2013-02-17 18:07:00,52.7,30.3,29.76,SSE,158,0.0,0.0,42,0.00,,---,0.00,VWS V14.01,2013-02-18 00:07:00,
2013-02-17 18:12:00,52.5,30.1,29.76,SSE,158,0.0,0.0,42,0.00,,---,0.00,VWS V14.01,2013-02-18 00:12:00,
2013-02-17 18:17:00,52.2,29.8,29.76,SE,135,0.0,0.9,42,0.00,,---,0.00,VWS V14.01,2013-02-18 00:17:00,
2013-02-17 18:22:00,52.3,30.5,29.76,ENE,68,0.0,0.0,43,0.00,,---,0.00,VWS V14.01,2013-02-18 00:22:00,
2013-02-17 18:27:00,52.3,31.1,29.76,ENE,68,2.5,2.5,44,0.00,,---,0.00,VWS V14.01,2013-02-18 00:27:00,
2013-02-17 18:32:00,52.3,31.1,29.76,East,90,2.5,2.5,44,0.00,,---,0.00,VWS V14.01,2013-02-18 00:32:00,
2013-02-17 18:37:00,52.0,30.8,29.76,South,180,0.0,0.0,44,0.00,,---,0.00,VWS V14.01,2013-02-18 00:37:00,
2013-02-17 18:42:00,51.6,31.0,29.76,East,90,0.0,0.0,45,0.00,,---,0.00,VWS V14.01,2013-02-18 00:42:00,
2013-02-17 18:47:00,51.4,30.8,29.76,ESE,112,0.0,0.0,45,0.00,,---,0.00,VWS V14.01,2013-02-18 00:47:00,
2013-02-17 18:52:00,51.3,31.2,29.76,East,90,0.0,0.0,46,0.00,,---,0.00,VWS V14.01,2013-02-18 00:52:00,
2013-02-17 18:57:00,50.9,30.9,29.76,SE,135,0.9,0.9,46,0.00,,---,0.00,VWS V14.01,2013-02-18 00:57:00,
2013-02-17 19:02:00,50.5,30.5,29.74,South,180,0.0,0.0,46,0.00,,---,0.00,VWS V14.01,2013-02-18 01:02:00,
2013-02-17 19:07:00,50.4,30.4,29.74,SSE,158,0.0,0.0,46,0.00,,---,0.00,VWS V14.01,2013-02-18 01:07:00,
2013-02-17 19:12:00,50.0,30.6,29.74,South,180,0.0,0.0,47,0.00,,---,0.00,VWS V14.01,2013-02-18 01:12:00,
2013-02-17 19:17:00,49.6,30.2,29.74,East,90,0.0,0.0,47,0.00,,---,0.00,VWS V14.01,2013-02-18 01:17:00,
2013-02-17 19:22:00,49.5,30.1,29.74,East,90,0.0,0.0,47,0.00,,---,0.00,VWS V14.01,2013-02-18 01:22:00,
2013-02-17 19:27:00,48.9,30.1,29.74,East,90,0.0,0.0,48,0.00,,---,0.00,VWS V14.01,2013-02-18 01:27:00,
2013-02-17 19:32:00,48.7,29.9,29.74,East,90,0.0,0.0,48,0.00,,---,0.00,VWS V14.01,2013-02-18 01:32:00,
2013-02-17 19:37:00,48.7,29.9,29.74,East,90,0.0,0.0,48,0.00,,---,0.00,VWS V14.01,2013-02-18 01:37:00,
2013-02-17 19:42:00,48.7,29.9,29.74,South,180,0.0,0.0,48,0.00,,---,0.00,VWS V14.01,2013-02-18 01:42:00,
2013-02-17 19:47:00,49.8,31.4,29.74,SE,135,1.6,2.5,49,0.00,,---,0.00,VWS V14.01,2013-02-18 01:47:00,
2013-02-17 19:52:00,50.2,31.8,29.74,NW,315,2.9,2.9,49,0.00,,---,0.00,VWS V14.01,2013-02-18 01:52:00,
2013-02-17 19:57:00,50.7,32.3,29.74,SSE,158,0.0,0.0,49,0.00,,---,0.00,VWS V14.01,2013-02-18 01:57:00,
2013-02-17 20:02:00,51.3,32.3,29.74,East,90,0.0,0.0,48,0.00,,---,0.00,VWS V14.01,2013-02-18 02:02:00,
2013-02-17 20:07:00,51.4,32.4,29.74,South,180,0.0,0.9,48,0.00,,---,0.00,VWS V14.01,2013-02-18 02:07:00,
2013-02-17 20:12:00,51.4,32.4,29.74,SSE,158,0.0,0.0,48,0.00,,---,0.00,VWS V14.01,2013-02-18 02:12:00,
2013-02-17 20:17:00,51.6,32.6,29.74,SE,135,0.0,0.0,48,0.00,,---,0.00,VWS V14.01,2013-02-18 02:17:00,
2013-02-17 20:22:00,51.4,32.4,29.74,South,180,1.1,1.1,48,0.00,,---,0.00,VWS V14.01,2013-02-18 02:22:00,
2013-02-17 20:27:00,51.6,32.6,29.74,South,180,0.0,0.0,48,0.00,,---,0.00,VWS V14.01,2013-02-18 02:27:00,
2013-02-17 20:32:00,51.6,32.6,29.71,SSE,158,0.0,0.9,48,0.00,,---,0.00,VWS V14.01,2013-02-18 02:32:00,
2013-02-17 20:37:00,51.6,32.6,29.71,SE,135,0.0,0.0,48,0.00,,---,0.00,VWS V14.01,2013-02-18 02:37:00,
2013-02-17 20:42:00,51.6,32.6,29.71,SSW,202,1.1,1.1,48,0.00,,---,0.00,VWS V14.01,2013-02-18 02:42:00,
2013-02-17 20:47:00,51.6,32.6,29.71,ESE,112,1.1,1.1,48,0.00,,---,0.00,VWS V14.01,2013-02-18 02:47:00,
2013-02-17 20:52:00,51.6,32.6,29.71,ESE,112,0.9,0.9,48,0.00,,---,0.00,VWS V14.01,2013-02-18 02:52:00,
2013-02-17 20:57:00,51.8,32.2,29.71,SSE,158,0.9,2.5,47,0.00,,---,0.00,VWS V14.01,2013-02-18 02:57:00,
2013-02-17 21:02:00,51.8,32.2,29.71,SSE,158,0.0,2.7,47,0.00,,---,0.00,VWS V14.01,2013-02-18 03:02:00,
2013-02-17 21:07:00,51.8,32.2,29.71,SSE,158,1.3,1.3,47,0.00,,---,0.00,VWS V14.01,2013-02-18 03:07:00,
2013-02-17 21:12:00,51.6,32.6,29.71,South,180,0.0,0.0,48,0.00,,---,0.00,VWS V14.01,2013-02-18 03:12:00,
2013-02-17 21:17:00,51.6,32.6,29.71,SE,135,1.1,1.1,48,0.00,,---,0.00,VWS V14.01,2013-02-18 03:17:00,
2013-02-17 21:22:00,51.6,32.6,29.71,ESE,112,0.0,0.0,48,0.00,,---,0.00,VWS V14.01,2013-02-18 03:22:00,
2013-02-17 21:27:00,51.4,32.4,29.71,SSE,158,0.0,0.0,48,0.00,,---,0.00,VWS V14.01,2013-02-18 03:27:00,
2013-02-17 21:32:00,51.3,32.3,29.71,South,180,1.1,1.1,48,0.00,,---,0.00,VWS V14.01,2013-02-18 03:32:00,
2013-02-17 21:37:00,51.3,32.3,29.71,SSE,158,1.1,1.1,48,0.00,,---,0.00,VWS V14.01,2013-02-18 03:37:00,
2013-02-17 21:42:00,51.3,32.3,29.71,SE,135,0.0,0.0,48,0.00,,---,0.00,VWS V14.01,2013-02-18 03:42:00,
2013-02-17 21:47:00,51.3,32.3,29.71,South,180,1.6,2.5,48,0.00,,---,0.00,VWS V14.01,2013-02-18 03:47:00,
2013-02-17 21:52:00,50.9,31.9,29.71,SSE,158,0.0,1.6,48,0.00,,---,0.00,VWS V14.01,2013-02-18 03:52:00,
2013-02-17 21:57:00,50.7,31.8,29.71,East,90,2.0,2.0,48,0.00,,---,0.00,VWS V14.01,2013-02-18 03:57:00,
2013-02-17 22:02:00,50.9,31.9,29.71,SE,135,1.1,1.1,48,0.00,,---,0.00,VWS V14.01,2013-02-18 04:02:00,
2013-02-17 22:07:00,51.1,32.1,29.71,SE,135,1.3,1.3,48,0.00,,---,0.00,VWS V14.01,2013-02-18 04:07:00,
2013-02-17 22:12:00,51.1,32.1,29.71,SE,135,0.9,5.4,48,0.00,,---,0.00,VWS V14.01,2013-02-18 04:12:00,
2013-02-17 22:17:00,51.4,32.4,29.71,SW,225,0.0,4.0,48,0.00,,---,0.00,VWS V14.01,2013-02-18 04:17:00,
2013-02-17 22:22:00,51.4,32.4,29.71,South,180,0.0,0.0,48,0.00,,---,0.00,VWS V14.01,2013-02-18 04:22:00,
2013-02-17 22:27:00,51.4,32.4,29.71,SW,225,1.1,2.9,48,0.00,,---,0.00,VWS V14.01,2013-02-18 04:27:00,
2013-02-17 22:32:00,51.6,32.6,29.71,South,180,2.9,2.9,48,0.00,,---,0.00,VWS V14.01,2013-02-18 04:32:00,
2013-02-17 22:37:00,52.0,32.4,29.71,SSE,158,1.1,2.7,47,0.00,,---,0.00,VWS V14.01,2013-02-18 04:37:00,
2013-02-17 22:42:00,52.0,32.4,29.71,South,180,3.8,4.5,47,0.00,,---,0.00,VWS V14.01,2013-02-18 04:42:00,
2013-02-17 22:47:00,52.0,32.4,29.71,SW,225,1.1,4.3,47,0.00,,---,0.00,VWS V14.01,2013-02-18 04:47:00,
2013-02-17 22:52:00,52.2,32.6,29.71,SSE,158,0.0,2.2,47,0.00,,---,0.00,VWS V14.01,2013-02-18 04:52:00,
2013-02-17 22:57:00,52.3,32.7,29.71,South,180,2.5,2.5,47,0.00,,---,0.00,VWS V14.01,2013-02-18 04:57:00,
2013-02-17 23:00:00,52.5,32.9,29.68,South,180,2.7,2.7,47,0.00,,---,0.00,VWS V14.01,2013-02-18 05:00:00,
2013-02-17 23:05:00,52.9,33.2,29.68,South,180,0.0,0.0,47,0.00,,---,0.00,VWS V14.01,2013-02-18 05:05:00,
2013-02-17 23:10:00,53.1,32.8,29.68,South,180,2.0,2.0,46,0.00,,---,0.00,VWS V14.01,2013-02-18 05:10:00,
2013-02-17 23:15:00,53.2,33.0,29.68,South,180,0.0,0.0,46,0.00,,---,0.00,VWS V14.01,2013-02-18 05:15:00,
2013-02-17 23:20:00,53.2,33.0,29.68,SE,135,2.2,2.2,46,0.00,,---,0.00,VWS V14.01,2013-02-18 05:20:00,
2013-02-17 23:25:00,53.2,33.0,29.68,South,180,2.0,2.9,46,0.00,,---,0.00,VWS V14.01,2013-02-18 05:25:00,
2013-02-17 23:30:00,53.4,33.2,29.68,South,180,0.0,2.9,46,0.00,,---,0.00,VWS V14.01,2013-02-18 05:30:00,
2013-02-17 23:35:00,53.4,33.2,29.68,East,90,0.9,1.3,46,0.00,,---,0.00,VWS V14.01,2013-02-18 05:35:00,
2013-02-17 23:40:00,53.4,33.2,29.68,South,180,3.6,3.6,46,0.00,,---,0.00,VWS V14.01,2013-02-18 05:40:00,
2013-02-17 23:45:00,53.4,33.2,29.68,NNW,338,3.1,3.1,46,0.00,,---,0.00,VWS V14.01,2013-02-18 05:45:00,
2013-02-17 23:50:00,53.6,32.8,29.68,South,180,2.5,2.5,45,0.00,,---,0.00,VWS V14.01,2013-02-18 05:50:00,
2013-02-17 23:55:00,53.4,32.6,29.68,SE,135,2.9,3.4,45,0.00,,---,0.00,VWS V14.01,2013-02-18 05:55:00,